sensor_id;sensor_type;location;lat;lon;timestamp;pressure;altitude;pressure_sealevel;temperature;humidity
60373;BME280;46216;52.220;5.134;2022-09-29T00:02:09;100207.38;;;8.40;100.00
60373;BME280;46216;52.220;5.134;2022-09-29T00:04:34;100201.41;;;8.37;100.00
60373;BME280;46216;52.220;5.134;2022-09-29T00:06:59;100202.25;;;8.37;100.00
60373;BME280;46216;52.220;5.134;2022-09-29T00:09:25;100198.84;;;8.35;100.00
60373;BME280;46216;52.220;5.134;2022-09-29T00:11:53;100198.13;;;8.33;100.00
60373;BME280;46216;52.220;5.134;2022-09-29T00:14:19;100198.13;;;8.33;100.00
60373;BME280;46216;52.220;5.134;2022-09-29T00:16:44;100201.72;;;8.32;100.00
60373;BME280;46216;52.220;5.134;2022-09-29T00:19:10;100199.06;;;8.32;100.00
60373;BME280;46216;52.220;5.134;2022-09-29T00:21:36;100195.78;;;8.28;100.00
60373;BME280;46216;52.220;5.134;2022-09-29T00:24:01;100189.66;;;8.28;100.00
60373;BME280;46216;52.220;5.134;2022-09-29T00:26:26;100187.00;;;8.28;100.00
60373;BME280;46216;52.220;5.134;2022-09-29T00:28:57;100189.78;;;8.26;100.00
60373;BME280;46216;52.220;5.134;2022-09-29T00:31:26;100197.81;;;8.25;100.00
60373;BME280;46216;52.220;5.134;2022-09-29T00:33:52;100197.13;;;8.23;100.00
60373;BME280;46216;52.220;5.134;2022-09-29T00:36:19;100180.66;;;8.18;100.00
60373;BME280;46216;52.220;5.134;2022-09-29T00:38:45;100194.69;;;8.20;100.00
60373;BME280;46216;52.220;5.134;2022-09-29T00:41:20;100196.59;;;8.18;100.00
60373;BME280;46216;52.220;5.134;2022-09-29T00:43:58;100191.28;;;8.18;100.00
60373;BME280;46216;52.220;5.134;2022-09-29T00:46:42;100197.03;;;8.12;100.00
60373;BME280;46216;52.220;5.134;2022-09-29T00:49:50;100192.81;;;8.09;100.00
60373;BME280;46216;52.220;5.134;2022-09-29T00:52:25;100188.56;;;8.06;100.00
60373;BME280;46216;52.220;5.134;2022-09-29T00:55:02;100192.06;;;8.07;100.00
60373;BME280;46216;52.220;5.134;2022-09-29T00:57:35;100195.78;;;8.04;100.00
60373;BME280;46216;52.220;5.134;2022-09-29T01:00:05;100200.25;;;8.04;100.00
60373;BME280;46216;52.220;5.134;2022-09-29T01:02:33;100202.06;;;8.03;100.00
60373;BME280;46216;52.220;5.134;2022-09-29T01:05:01;100191.44;;;8.03;100.00
60373;BME280;46216;52.220;5.134;2022-09-29T01:07:31;100194.09;;;8.03;100.00
60373;BME280;46216;52.220;5.134;2022-09-29T01:09:58;100191.56;;;8.02;100.00
60373;BME280;46216;52.220;5.134;2022-09-29T01:12:24;100176.72;;;7.99;100.00
60373;BME280;46216;52.220;5.134;2022-09-29T01:14:51;100178.84;;;7.94;100.00
60373;BME280;46216;52.220;5.134;2022-09-29T01:17:18;100186.56;;;7.97;100.00
60373;BME280;46216;52.220;5.134;2022-09-29T01:20:21;100184.59;;;7.88;100.00
60373;BME280;46216;52.220;5.134;2022-09-29T01:30:52;100198.81;;;7.87;100.00
60373;BME280;46216;52.220;5.134;2022-09-29T01:33:47;100198.31;;;7.82;100.00
60373;BME280;46216;52.220;5.134;2022-09-29T01:39:23;100203.69;;;7.80;100.00
60373;BME280;46216;52.220;5.134;2022-09-29T01:41:58;100199.25;;;7.81;100.00
60373;BME280;46216;52.220;5.134;2022-09-29T01:44:41;100201.38;;;7.76;100.00
60373;BME280;46216;52.220;5.134;2022-09-29T01:49:41;100202.44;;;7.73;100.00
60373;BME280;46216;52.220;5.134;2022-09-29T01:52:12;100206.16;;;7.71;100.00
60373;BME280;46216;52.220;5.134;2022-09-29T01:54:49;100211.47;;;7.71;100.00
60373;BME280;46216;52.220;5.134;2022-09-29T01:57:24;100213.38;;;7.69;100.00
60373;BME280;46216;52.220;5.134;2022-09-29T02:00:00;100208.19;;;7.67;100.00
60373;BME280;46216;52.220;5.134;2022-09-29T02:02:31;100210.75;;;7.69;100.00
60373;BME280;46216;52.220;5.134;2022-09-29T02:05:02;100206.50;;;7.66;100.00
60373;BME280;46216;52.220;5.134;2022-09-29T02:07:35;100207.53;;;7.64;100.00
60373;BME280;46216;52.220;5.134;2022-09-29T02:10:09;100215.50;;;7.64;100.00
60373;BME280;46216;52.220;5.134;2022-09-29T02:12:37;100212.84;;;7.64;100.00
60373;BME280;46216;52.220;5.134;2022-09-29T02:15:06;100209.69;;;7.58;100.00
60373;BME280;46216;52.220;5.134;2022-09-29T02:17:38;100205.34;;;7.57;100.00
60373;BME280;46216;52.220;5.134;2022-09-29T02:20:05;100209.69;;;7.58;100.00
60373;BME280;46216;52.220;5.134;2022-09-29T02:22:33;100198.66;;;7.52;100.00
60373;BME280;46216;52.220;5.134;2022-09-29T02:25:00;100207.34;;;7.54;100.00
60373;BME280;46216;52.220;5.134;2022-09-29T02:27:27;100198.53;;;7.53;100.00
60373;BME280;46216;52.220;5.134;2022-09-29T02:29:57;100211.81;;;7.53;100.00
60373;BME280;46216;52.220;5.134;2022-09-29T02:32:24;100215.41;;;7.52;100.00
60373;BME280;46216;52.220;5.134;2022-09-29T02:34:51;100200.91;;;7.45;100.00
60373;BME280;46216;52.220;5.134;2022-09-29T02:37:30;100207.78;;;7.48;100.00
60373;BME280;46216;52.220;5.134;2022-09-29T02:51:09;100198.03;;;7.35;100.00
60373;BME280;46216;52.220;5.134;2022-09-29T02:56:28;100207.59;;;7.38;100.00
60373;BME280;46216;52.220;5.134;2022-09-29T02:59:21;100201.94;;;7.30;100.00
60373;BME280;46216;52.220;5.134;2022-09-29T03:01:54;100208.75;;;7.34;100.00
60373;BME280;46216;52.220;5.134;2022-09-29T03:04:22;100204.59;;;7.30;100.00
60373;BME280;46216;52.220;5.134;2022-09-29T03:06:48;100210.66;;;7.32;100.00
60373;BME280;46216;52.220;5.134;2022-09-29T03:09:13;100208.22;;;7.29;100.00
60373;BME280;46216;52.220;5.134;2022-09-29T03:11:39;100206.53;;;7.28;100.00
60373;BME280;46216;52.220;5.134;2022-09-29T03:14:04;100209.19;;;7.28;100.00
60373;BME280;46216;52.220;5.134;2022-09-29T03:16:31;100215.44;;;7.27;100.00
60373;BME280;46216;52.220;5.134;2022-09-29T03:18:57;100218.19;;;7.25;100.00
60373;BME280;46216;52.220;5.134;2022-09-29T03:21:23;100212.03;;;7.25;100.00
60373;BME280;46216;52.220;5.134;2022-09-29T03:23:48;100214.78;;;7.23;100.00
60373;BME280;46216;52.220;5.134;2022-09-29T03:26:13;100212.25;;;7.22;100.00
60373;BME280;46216;52.220;5.134;2022-09-29T03:28:39;100213.22;;;7.21;100.00
60373;BME280;46216;52.220;5.134;2022-09-29T03:31:06;100201.22;;;7.15;100.00
60373;BME280;46216;52.220;5.134;2022-09-29T03:33:34;100203.13;;;7.13;100.00
60373;BME280;46216;52.220;5.134;2022-09-29T03:36:00;100205.88;;;7.11;100.00
60373;BME280;46216;52.220;5.134;2022-09-29T03:38:25;100215.22;;;7.17;100.00
60373;BME280;46216;52.220;5.134;2022-09-29T03:40:51;100217.88;;;7.17;100.00
60373;BME280;46216;52.220;5.134;2022-09-29T03:43:16;100206.09;;;7.08;100.00
60373;BME280;46216;52.220;5.134;2022-09-29T03:45:49;100218.28;;;7.11;100.00
60373;BME280;46216;52.220;5.134;2022-09-29T03:48:15;100220.28;;;7.07;100.00
60373;BME280;46216;52.220;5.134;2022-09-29T03:50:41;100217.66;;;7.07;100.00
60373;BME280;46216;52.220;5.134;2022-09-29T03:53:06;100217.94;;;7.03;100.00
60373;BME280;46216;52.220;5.134;2022-09-29T03:55:32;100220.59;;;7.03;100.00
60373;BME280;46216;52.220;5.134;2022-09-29T03:57:57;100213.94;;;6.97;100.00
60373;BME280;46216;52.220;5.134;2022-09-29T04:00:23;100226.97;;;7.00;100.00
60373;BME280;46216;52.220;5.134;2022-09-29T04:02:48;100229.63;;;7.00;100.00
60373;BME280;46216;52.220;5.134;2022-09-29T04:05:13;100230.53;;;6.99;100.00
60373;BME280;46216;52.220;5.134;2022-09-29T04:07:40;100226.41;;;6.95;100.00
60373;BME280;46216;52.220;5.134;2022-09-29T04:10:06;100229.81;;;6.97;100.00
60373;BME280;46216;52.220;5.134;2022-09-29T04:12:31;100223.13;;;6.92;100.00
60373;BME280;46216;52.220;5.134;2022-09-29T04:14:57;100236.28;;;6.93;100.00
60373;BME280;46216;52.220;5.134;2022-09-29T04:17:22;100232.13;;;6.89;100.00
60373;BME280;46216;52.220;5.134;2022-09-29T04:19:48;100240.19;;;6.87;100.00
60373;BME280;46216;52.220;5.134;2022-09-29T04:22:14;100233.59;;;6.80;100.00
60373;BME280;46216;52.220;5.134;2022-09-29T04:24:42;100245.03;;;6.81;100.00
60373;BME280;46216;52.220;5.134;2022-09-29T04:27:08;100248.66;;;6.80;100.00
60373;BME280;46216;52.220;5.134;2022-09-29T04:29:33;100243.34;;;6.80;100.00
60373;BME280;46216;52.220;5.134;2022-09-29T04:31:59;100246.72;;;6.82;100.00
60373;BME280;46216;52.220;5.134;2022-09-29T04:34:24;100252.97;;;6.81;100.00
60373;BME280;46216;52.220;5.134;2022-09-29T04:36:50;100253.94;;;6.80;100.00
60373;BME280;46216;52.220;5.134;2022-09-29T04:39:15;100255.81;;;6.78;100.00
60373;BME280;46216;52.220;5.134;2022-09-29T04:41:40;100254.34;;;6.74;100.00
60373;BME280;46216;52.220;5.134;2022-09-29T04:44:06;100257.63;;;6.77;100.00
60373;BME280;46216;52.220;5.134;2022-09-29T04:46:31;100243.09;;;6.70;100.00
60373;BME280;46216;52.220;5.134;2022-09-29T04:48:57;100250.84;;;6.73;100.00
60373;BME280;46216;52.220;5.134;2022-09-29T04:51:22;100250.28;;;6.68;100.00
60373;BME280;46216;52.220;5.134;2022-09-29T04:53:48;100265.91;;;6.73;100.00
60373;BME280;46216;52.220;5.134;2022-09-29T04:56:13;100263.44;;;6.70;100.00
60373;BME280;46216;52.220;5.134;2022-09-29T04:58:39;100264.38;;;6.69;100.00
60373;BME280;46216;52.220;5.134;2022-09-29T05:01:06;100257.59;;;6.64;100.00
60373;BME280;46216;52.220;5.134;2022-09-29T05:03:33;100261.06;;;6.65;100.00
60373;BME280;46216;52.220;5.134;2022-09-29T05:05:58;100257.69;;;6.63;100.00
60373;BME280;46216;52.220;5.134;2022-09-29T05:08:24;100260.44;;;6.61;100.00
60373;BME280;46216;52.220;5.134;2022-09-29T05:10:49;100263.19;;;6.60;100.00
60373;BME280;46216;52.220;5.134;2022-09-29T05:13:15;100260.81;;;6.55;100.00
60373;BME280;46216;52.220;5.134;2022-09-29T05:15:40;100265.94;;;6.58;100.00
60373;BME280;46216;52.220;5.134;2022-09-29T05:18:06;100280.97;;;6.58;100.00
60373;BME280;46216;52.220;5.134;2022-09-29T05:20:32;100273.13;;;6.56;100.00
60373;BME280;46216;52.220;5.134;2022-09-29T05:22:58;100280.88;;;6.59;100.00
60373;BME280;46216;52.220;5.134;2022-09-29T05:25:25;100272.28;;;6.56;100.00
60373;BME280;46216;52.220;5.134;2022-09-29T05:27:51;100279.16;;;6.58;100.00
60373;BME280;46216;52.220;5.134;2022-09-29T05:30:16;100273.72;;;6.47;100.00
60373;BME280;46216;52.220;5.134;2022-09-29T05:32:42;100289.22;;;6.53;100.00
60373;BME280;46216;52.220;5.134;2022-09-29T05:35:08;100281.66;;;6.47;100.00
60373;BME280;46216;52.220;5.134;2022-09-29T05:37:33;100297.34;;;6.50;100.00
60373;BME280;46216;52.220;5.134;2022-09-29T05:39:59;100296.50;;;6.50;100.00
60373;BME280;46216;52.220;5.134;2022-09-29T05:42:24;100291.28;;;6.48;100.00
60373;BME280;46216;52.220;5.134;2022-09-29T05:44:50;100304.34;;;6.51;100.00
60373;BME280;46216;52.220;5.134;2022-09-29T05:47:15;100296.41;;;6.51;100.00
60373;BME280;46216;52.220;5.134;2022-09-29T05:49:41;100301.69;;;6.51;100.00
60373;BME280;46216;52.220;5.134;2022-09-29T05:52:06;100303.81;;;6.46;100.00
60373;BME280;46216;52.220;5.134;2022-09-29T05:54:32;100301.88;;;6.48;100.00
60373;BME280;46216;52.220;5.134;2022-09-29T05:56:57;100306.44;;;6.46;100.00
60373;BME280;46216;52.220;5.134;2022-09-29T05:59:25;100313.22;;;6.50;100.00
60373;BME280;46216;52.220;5.134;2022-09-29T06:01:51;100314.06;;;6.51;100.00
60373;BME280;46216;52.220;5.134;2022-09-29T06:04:16;100308.03;;;6.49;100.00
60373;BME280;46216;52.220;5.134;2022-09-29T06:06:42;100315.78;;;6.52;100.00
60373;BME280;46216;52.220;5.134;2022-09-29T06:09:08;100316.06;;;6.47;100.00
60373;BME280;46216;52.220;5.134;2022-09-29T06:11:33;100303.03;;;6.44;100.00
60373;BME280;46216;52.220;5.134;2022-09-29T06:14:00;100305.69;;;6.44;100.00
60373;BME280;46216;52.220;5.134;2022-09-29T06:16:28;100313.63;;;6.44;100.00
60373;BME280;46216;52.220;5.134;2022-09-29T06:18:54;100320.03;;;6.54;100.00
60373;BME280;46216;52.220;5.134;2022-09-29T06:21:25;100324.34;;;6.55;100.00
60373;BME280;46216;52.220;5.134;2022-09-29T06:23:52;100323.25;;;6.59;100.00
60373;BME280;46216;52.220;5.134;2022-09-29T06:26:18;100325.69;;;6.62;100.00
60373;BME280;46216;52.220;5.134;2022-09-29T06:28:44;100322.09;;;6.63;100.00
60373;BME280;46216;52.220;5.134;2022-09-29T06:31:11;100322.94;;;6.64;100.00
60373;BME280;46216;52.220;5.134;2022-09-29T06:33:37;100330.50;;;6.70;100.00
60373;BME280;46216;52.220;5.134;2022-09-29T06:36:19;100336.50;;;6.72;100.00
60373;BME280;46216;52.220;5.134;2022-09-29T06:39:05;100329.97;;;6.78;100.00
60373;BME280;46216;52.220;5.134;2022-09-29T06:41:30;100334.97;;;6.82;100.00
60373;BME280;46216;52.220;5.134;2022-09-29T06:43:56;100336.50;;;6.86;100.00
60373;BME280;46216;52.220;5.134;2022-09-29T06:46:21;100333.72;;;6.88;100.00
60373;BME280;46216;52.220;5.134;2022-09-29T06:48:47;100346.56;;;6.94;100.00
60373;BME280;46216;52.220;5.134;2022-09-29T06:51:12;100351.69;;;6.97;100.00
60373;BME280;46216;52.220;5.134;2022-09-29T06:53:39;100343.34;;;7.03;100.00
60373;BME280;46216;52.220;5.134;2022-09-29T06:56:06;100347.72;;;7.17;100.00
60373;BME280;46216;52.220;5.134;2022-09-29T06:58:33;100345.06;;;7.30;100.00
60373;BME280;46216;52.220;5.134;2022-09-29T07:01:00;100353.47;;;7.37;100.00
60373;BME280;46216;52.220;5.134;2022-09-29T07:03:27;100356.47;;;7.45;100.00
60373;BME280;46216;52.220;5.134;2022-09-29T07:05:52;100359.56;;;7.51;100.00
60373;BME280;46216;52.220;5.134;2022-09-29T07:08:18;100358.59;;;7.52;100.00
60373;BME280;46216;52.220;5.134;2022-09-29T07:10:45;100360.91;;;7.57;100.00
60373;BME280;46216;52.220;5.134;2022-09-29T07:13:10;100366.88;;;7.61;100.00
60373;BME280;46216;52.220;5.134;2022-09-29T07:15:35;100373.69;;;7.65;100.00
60373;BME280;46216;52.220;5.134;2022-09-29T07:18:03;100367.22;;;7.69;100.00
60373;BME280;46216;52.220;5.134;2022-09-29T07:20:29;100368.69;;;7.73;100.00
60373;BME280;46216;52.220;5.134;2022-09-29T07:22:55;100371.91;;;7.78;100.00
60373;BME280;46216;52.220;5.134;2022-09-29T07:25:22;100375.06;;;7.83;100.00
60373;BME280;46216;52.220;5.134;2022-09-29T07:27:49;100370.31;;;7.88;100.00
60373;BME280;46216;52.220;5.134;2022-09-29T07:30:16;100371.03;;;7.90;100.00
60373;BME280;46216;52.220;5.134;2022-09-29T07:32:42;100377.53;;;7.99;100.00
60373;BME280;46216;52.220;5.134;2022-09-29T07:35:08;100378.88;;;8.04;100.00
60373;BME280;46216;52.220;5.134;2022-09-29T07:37:36;100382.16;;;8.08;100.00
60373;BME280;46216;52.220;5.134;2022-09-29T07:40:02;100384.53;;;8.13;100.00
60373;BME280;46216;52.220;5.134;2022-09-29T07:42:27;100390.13;;;8.21;100.00
60373;BME280;46216;52.220;5.134;2022-09-29T07:44:56;100397.47;;;8.30;100.00
60373;BME280;46216;52.220;5.134;2022-09-29T07:47:22;100389.38;;;8.32;100.00
60373;BME280;46216;52.220;5.134;2022-09-29T07:49:47;100399.16;;;8.44;100.00
60373;BME280;46216;52.220;5.134;2022-09-29T07:52:13;100413.81;;;8.49;100.00
60373;BME280;46216;52.220;5.134;2022-09-29T07:54:39;100414.13;;;8.58;100.00
60373;BME280;46216;52.220;5.134;2022-09-29T07:57:04;100418.88;;;8.65;100.00
60373;BME280;46216;52.220;5.134;2022-09-29T07:59:30;100417.59;;;8.71;100.00
60373;BME280;46216;52.220;5.134;2022-09-29T08:01:56;100419.69;;;8.79;100.00
60373;BME280;46216;52.220;5.134;2022-09-29T08:04:21;100422.75;;;8.85;100.00
60373;BME280;46216;52.220;5.134;2022-09-29T08:06:47;100427.63;;;8.91;100.00
60373;BME280;46216;52.220;5.134;2022-09-29T08:09:13;100431.56;;;8.98;100.00
60373;BME280;46216;52.220;5.134;2022-09-29T08:11:41;100426.84;;;9.02;100.00
60373;BME280;46216;52.220;5.134;2022-09-29T08:14:08;100426.28;;;9.10;100.00
60373;BME280;46216;52.220;5.134;2022-09-29T08:16:34;100437.22;;;9.18;100.00
60373;BME280;46216;52.220;5.134;2022-09-29T08:19:00;100430.59;;;9.23;100.00
60373;BME280;46216;52.220;5.134;2022-09-29T08:21:26;100433.66;;;9.30;100.00
60373;BME280;46216;52.220;5.134;2022-09-29T08:23:52;100438.88;;;9.32;100.00
60373;BME280;46216;52.220;5.134;2022-09-29T08:26:19;100444.59;;;9.38;100.00
60373;BME280;46216;52.220;5.134;2022-09-29T08:28:45;100445.81;;;9.45;100.00
60373;BME280;46216;52.220;5.134;2022-09-29T08:31:16;100446.44;;;9.49;100.00
60373;BME280;46216;52.220;5.134;2022-09-29T08:33:49;100454.47;;;9.60;100.00
60373;BME280;46216;52.220;5.134;2022-09-29T08:36:16;100459.94;;;9.70;100.00
60373;BME280;46216;52.220;5.134;2022-09-29T08:38:49;100459.50;;;9.76;100.00
60373;BME280;46216;52.220;5.134;2022-09-29T08:44:04;100460.03;;;9.92;100.00
60373;BME280;46216;52.220;5.134;2022-09-29T08:46:38;100471.06;;;9.99;100.00
60373;BME280;46216;52.220;5.134;2022-09-29T08:49:10;100473.97;;;10.07;100.00
60373;BME280;46216;52.220;5.134;2022-09-29T08:51:44;100479.06;;;10.10;100.00
60373;BME280;46216;52.220;5.134;2022-09-29T08:54:32;100478.59;;;10.16;100.00
60373;BME280;46216;52.220;5.134;2022-09-29T08:56:59;100480.25;;;10.30;100.00
60373;BME280;46216;52.220;5.134;2022-09-29T08:59:27;100481.22;;;10.40;100.00
60373;BME280;46216;52.220;5.134;2022-09-29T09:02:22;100484.88;;;10.51;100.00
60373;BME280;46216;52.220;5.134;2022-09-29T09:07:51;100486.81;;;10.60;100.00
60373;BME280;46216;52.220;5.134;2022-09-29T09:10:42;100478.22;;;10.68;100.00
60373;BME280;46216;52.220;5.134;2022-09-29T09:24:36;100496.44;;;11.17;100.00
60373;BME280;46216;52.220;5.134;2022-09-29T09:27:12;100505.94;;;11.21;100.00
60373;BME280;46216;52.220;5.134;2022-09-29T09:29:42;100503.13;;;11.23;100.00
60373;BME280;46216;52.220;5.134;2022-09-29T09:32:14;100501.66;;;11.30;100.00
60373;BME280;46216;52.220;5.134;2022-09-29T09:37:38;100497.34;;;11.50;100.00
60373;BME280;46216;52.220;5.134;2022-09-29T09:40:16;100500.97;;;11.60;100.00
60373;BME280;46216;52.220;5.134;2022-09-29T09:43:13;100496.81;;;11.67;100.00
60373;BME280;46216;52.220;5.134;2022-09-29T09:51:01;100509.88;;;11.93;100.00
60373;BME280;46216;52.220;5.134;2022-09-29T09:53:37;100506.78;;;11.97;100.00
60373;BME280;46216;52.220;5.134;2022-09-29T09:56:20;100497.44;;;12.03;100.00
60373;BME280;46216;52.220;5.134;2022-09-29T10:01:34;100510.06;;;12.22;100.00
60373;BME280;46216;52.220;5.134;2022-09-29T10:04:00;100510.38;;;12.28;100.00
60373;BME280;46216;52.220;5.134;2022-09-29T10:06:27;100514.13;;;12.37;100.00
60373;BME280;46216;52.220;5.134;2022-09-29T10:08:53;100504.13;;;12.39;100.00
60373;BME280;46216;52.220;5.134;2022-09-29T10:11:24;100511.81;;;12.32;100.00
60373;BME280;46216;52.220;5.134;2022-09-29T10:13:59;100514.13;;;12.37;100.00
60373;BME280;46216;52.220;5.134;2022-09-29T10:16:30;100518.06;;;12.43;100.00
60373;BME280;46216;52.220;5.134;2022-09-29T10:18:57;100511.38;;;12.48;100.00
60373;BME280;46216;52.220;5.134;2022-09-29T10:21:42;100505.59;;;12.53;100.00
60373;BME280;46216;52.220;5.134;2022-09-29T10:24:22;100506.91;;;12.59;100.00
60373;BME280;46216;52.220;5.134;2022-09-29T10:26:51;100515.84;;;12.69;100.00
60373;BME280;46216;52.220;5.134;2022-09-29T10:29:37;100503.19;;;12.71;100.00
60373;BME280;46216;52.220;5.134;2022-09-29T10:32:11;100508.59;;;12.81;100.00
60373;BME280;46216;52.220;5.134;2022-09-29T10:34:40;100513.38;;;12.87;100.00
60373;BME280;46216;52.220;5.134;2022-09-29T10:37:21;100510.03;;;12.94;100.00
60373;BME280;46216;52.220;5.134;2022-09-29T10:40:02;100509.09;;;13.05;100.00
60373;BME280;46216;52.220;5.134;2022-09-29T10:42:34;100503.78;;;13.15;100.00
60373;BME280;46216;52.220;5.134;2022-09-29T10:45:10;100509.56;;;13.20;100.00
60373;BME280;46216;52.220;5.134;2022-09-29T10:47:35;100502.09;;;13.23;100.00
60373;BME280;46216;52.220;5.134;2022-09-29T10:52:32;100506.25;;;13.37;100.00
60373;BME280;46216;52.220;5.134;2022-09-29T10:54:59;100512.63;;;13.46;100.00
60373;BME280;46216;52.220;5.134;2022-09-29T10:57:30;100509.22;;;13.44;100.00
60373;BME280;46216;52.220;5.134;2022-09-29T10:59:56;100514.03;;;13.50;100.00
60373;BME280;46216;52.220;5.134;2022-09-29T11:02:27;100516.56;;;13.52;100.00
60373;BME280;46216;52.220;5.134;2022-09-29T11:04:56;100513.47;;;13.56;100.00
60373;BME280;46216;52.220;5.134;2022-09-29T11:07:23;100510.38;;;13.61;100.00
60373;BME280;46216;52.220;5.134;2022-09-29T11:09:49;100512.06;;;13.71;100.00
60373;BME280;46216;52.220;5.134;2022-09-29T11:12:33;100506.72;;;13.71;100.00
60373;BME280;46216;52.220;5.134;2022-09-29T11:15:00;100500.25;;;13.84;100.00
60373;BME280;46216;52.220;5.134;2022-09-29T11:17:35;100500.81;;;13.87;100.00
60373;BME280;46216;52.220;5.134;2022-09-29T11:20:04;100500.25;;;13.84;100.00
60373;BME280;46216;52.220;5.134;2022-09-29T11:25:33;100501.38;;;13.91;100.00
60373;BME280;46216;52.220;5.134;2022-09-29T11:33:38;100491.31;;;14.12;100.00
60373;BME280;46216;52.220;5.134;2022-09-29T11:36:16;100486.25;;;14.19;100.00
60373;BME280;46216;52.220;5.134;2022-09-29T11:38:59;100488.94;;;14.09;100.00
60373;BME280;46216;52.220;5.134;2022-09-29T11:41:44;100490.66;;;14.10;100.00
60373;BME280;46216;52.220;5.134;2022-09-29T11:44:31;100484.72;;;14.16;100.00
60373;BME280;46216;52.220;5.134;2022-09-29T11:47:12;100480.31;;;14.15;100.00
60373;BME280;46216;52.220;5.134;2022-09-29T11:55:27;100483.56;;;14.29;100.00
60373;BME280;46216;52.220;5.134;2022-09-29T12:04:08;100497.78;;;14.39;100.00
60373;BME280;46216;52.220;5.134;2022-09-29T12:07:01;100487.19;;;14.47;100.00
60373;BME280;46216;52.220;5.134;2022-09-29T12:15:06;100505.63;;;14.70;100.00
60373;BME280;46216;52.220;5.134;2022-09-29T12:17:40;100509.41;;;14.77;100.00
60373;BME280;46216;52.220;5.134;2022-09-29T12:22:44;100502.16;;;14.87;100.00
60373;BME280;46216;52.220;5.134;2022-09-29T12:25:16;100501.88;;;14.90;100.00
60373;BME280;46216;52.220;5.134;2022-09-29T12:27:44;100506.66;;;14.96;100.00
60373;BME280;46216;52.220;5.134;2022-09-29T12:30:23;100508.75;;;15.02;100.00
60373;BME280;46216;52.220;5.134;2022-09-29T12:35:30;100507.16;;;15.09;100.00
60373;BME280;46216;52.220;5.134;2022-09-29T12:44:05;100507.41;;;15.16;100.00
60373;BME280;46216;52.220;5.134;2022-09-29T12:46:42;100506.97;;;15.21;100.00
60373;BME280;46216;52.220;5.134;2022-09-29T12:51:52;100500.00;;;15.28;100.00
60373;BME280;46216;52.220;5.134;2022-09-29T12:56:53;100494.25;;;15.23;100.00
60373;BME280;46216;52.220;5.134;2022-09-29T13:01:55;100498.72;;;15.32;100.00
60373;BME280;46216;52.220;5.134;2022-09-29T13:04:50;100510.84;;;15.36;100.00
60373;BME280;46216;52.220;5.134;2022-09-29T13:25:02;100499.94;;;15.55;100.00
60373;BME280;46216;52.220;5.134;2022-09-29T13:27:31;100496.91;;;15.50;100.00
60373;BME280;46216;52.220;5.134;2022-09-29T13:30:15;100505.66;;;15.52;100.00
60373;BME280;46216;52.220;5.134;2022-09-29T13:32:46;100513.78;;;15.60;100.00
60373;BME280;46216;52.220;5.134;2022-09-29T13:35:16;100504.72;;;15.61;100.00
60373;BME280;46216;52.220;5.134;2022-09-29T13:37:53;100508.94;;;15.64;100.00
60373;BME280;46216;52.220;5.134;2022-09-29T13:40:25;100505.25;;;15.65;100.00
60373;BME280;46216;52.220;5.134;2022-09-29T13:42:55;100508.13;;;15.64;100.00
60373;BME280;46216;52.220;5.134;2022-09-29T13:47:53;100512.28;;;15.76;100.00
60373;BME280;46216;52.220;5.134;2022-09-29T13:50:48;100510.22;;;15.88;100.00
60373;BME280;46216;52.220;5.134;2022-09-29T13:58:32;100503.81;;;16.06;100.00
60373;BME280;46216;52.220;5.134;2022-09-29T14:01:00;100515.13;;;16.10;100.00
60373;BME280;46216;52.220;5.134;2022-09-29T14:03:33;100511.97;;;16.15;100.00
60373;BME280;46216;52.220;5.134;2022-09-29T14:06:14;100514.34;;;16.18;100.00
60373;BME280;46216;52.220;5.134;2022-09-29T14:08:48;100512.72;;;16.25;100.00
60373;BME280;46216;52.220;5.134;2022-09-29T14:11:35;100517.56;;;16.21;100.00
60373;BME280;46216;52.220;5.134;2022-09-29T14:14:15;100520.31;;;16.29;100.00
60373;BME280;46216;52.220;5.134;2022-09-29T14:27:46;100508.88;;;16.53;100.00
60373;BME280;46216;52.220;5.134;2022-09-29T14:33:03;100518.88;;;16.61;100.00
60373;BME280;46216;52.220;5.134;2022-09-29T14:35:38;100523.56;;;16.59;100.00
60373;BME280;46216;52.220;5.134;2022-09-29T14:38:13;100525.22;;;16.60;100.00
60373;BME280;46216;52.220;5.134;2022-09-29T14:40:55;100521.88;;;16.58;100.00
60373;BME280;46216;52.220;5.134;2022-09-29T14:43:25;100527.28;;;16.66;100.00
60373;BME280;46216;52.220;5.134;2022-09-29T14:52:50;100536.91;;;16.69;100.00
60373;BME280;46216;52.220;5.134;2022-09-29T15:03:46;100542.09;;;16.70;100.00
60373;BME280;46216;52.220;5.134;2022-09-29T15:06:18;100549.03;;;16.73;100.00
60373;BME280;46216;52.220;5.134;2022-09-29T15:08:58;100551.72;;;16.73;100.00
60373;BME280;46216;52.220;5.134;2022-09-29T15:11:35;100546.50;;;16.71;100.00
60373;BME280;46216;52.220;5.134;2022-09-29T15:14:01;100547.06;;;16.75;100.00
60373;BME280;46216;52.220;5.134;2022-09-29T15:16:32;100549.88;;;16.73;100.00
60373;BME280;46216;52.220;5.134;2022-09-29T15:26:43;100565.28;;;16.63;100.00
60373;BME280;46216;52.220;5.134;2022-09-29T15:29:14;100559.84;;;16.55;100.00
60373;BME280;46216;52.220;5.134;2022-09-29T15:31:43;100561.69;;;16.54;100.00
60373;BME280;46216;52.220;5.134;2022-09-29T15:34:16;100568.38;;;16.50;100.00
60373;BME280;46216;52.220;5.134;2022-09-29T15:36:46;100562.84;;;16.52;100.00
60373;BME280;46216;52.220;5.134;2022-09-29T15:42:04;100573.34;;;16.37;100.00
60373;BME280;46216;52.220;5.134;2022-09-29T15:44:36;100575.47;;;16.33;100.00
60373;BME280;46216;52.220;5.134;2022-09-29T15:47:01;100580.00;;;16.33;100.00
60373;BME280;46216;52.220;5.134;2022-09-29T15:49:28;100578.63;;;16.29;100.00